createdAt,value
2023-04-02T00:01:14.704Z,5.54
2023-04-02T00:04:04.122Z,5.54
2023-04-02T00:06:40.558Z,5.55
2023-04-02T00:09:14.694Z,5.55
2023-04-02T00:11:50.150Z,5.56
2023-04-02T00:14:26.191Z,5.58
2023-04-02T00:16:54.716Z,5.59
2023-04-02T00:19:28.718Z,5.60
2023-04-02T00:21:57.182Z,5.60
2023-04-02T00:24:25.614Z,5.61
2023-04-02T00:26:54.503Z,5.61
2023-04-02T00:29:22.706Z,5.62
2023-04-02T00:31:51.864Z,5.62
2023-04-02T00:34:24.206Z,5.61
2023-04-02T00:36:52.980Z,5.61
2023-04-02T00:39:25.415Z,5.59
2023-04-02T00:41:58.998Z,5.57
2023-04-02T00:44:29.478Z,5.56
2023-04-02T00:46:58.563Z,5.54
2023-04-02T00:49:30.124Z,5.53
2023-04-02T00:51:59.296Z,5.53
2023-04-02T00:54:28.342Z,5.52
2023-04-02T00:56:56.697Z,5.52
2023-04-02T00:59:25.129Z,5.53
2023-04-02T01:01:54.992Z,5.53
2023-04-02T01:04:31.720Z,5.54
2023-04-02T01:07:05.346Z,5.55
2023-04-02T01:09:52.862Z,5.56
2023-04-02T01:12:32.963Z,5.57
2023-04-02T01:15:07.319Z,5.60
2023-04-02T01:17:39.854Z,5.60
2023-04-02T01:20:26.805Z,5.61
2023-04-02T01:23:00.651Z,5.62
2023-04-02T01:25:49.124Z,5.62
2023-04-02T01:28:19.859Z,5.63
2023-04-02T01:30:51.720Z,5.64
2023-04-02T01:33:28.455Z,5.65
2023-04-02T01:36:17.837Z,5.66
2023-04-02T01:38:58.840Z,5.67
2023-04-02T01:41:28.684Z,5.68
2023-04-02T01:44:09.953Z,5.70
2023-04-02T01:46:40.431Z,5.72
2023-04-02T01:49:20.124Z,5.74
2023-04-02T01:51:53.222Z,5.74
2023-04-02T01:54:22.225Z,5.76
2023-04-02T01:56:50.692Z,5.76
2023-04-02T01:59:22.559Z,5.76
2023-04-02T02:02:04.395Z,5.77
2023-04-02T02:04:34.132Z,5.77
2023-04-02T02:07:02.712Z,5.77
2023-04-02T02:09:34.501Z,5.78
2023-04-02T02:12:03.253Z,5.78
2023-04-02T02:14:31.613Z,5.78
2023-04-02T02:17:02.318Z,5.78
2023-04-02T02:19:38.749Z,5.78
2023-04-02T02:22:09.269Z,5.78
2023-04-02T02:24:38.271Z,5.78
2023-04-02T02:27:22.779Z,5.80
2023-04-02T02:30:12.953Z,5.80
2023-04-02T02:32:46.811Z,5.80
2023-04-02T02:35:48.107Z,5.79
2023-04-02T02:38:34.368Z,5.78
2023-04-02T02:41:26.565Z,5.77
2023-04-02T02:44:06.209Z,5.78
2023-04-02T02:46:34.835Z,5.79
2023-04-02T02:49:04.764Z,5.80
2023-04-02T02:51:40.975Z,5.82
2023-04-02T02:54:09.913Z,5.84
2023-04-02T02:56:40.498Z,5.85
2023-04-02T02:59:08.911Z,5.85
2023-04-02T03:01:44.231Z,5.85
2023-04-02T03:04:12.855Z,5.85
2023-04-02T03:06:41.939Z,5.86
2023-04-02T03:09:13.613Z,5.88
2023-04-02T03:11:47.646Z,5.88
2023-04-02T03:14:21.531Z,5.88
2023-04-02T03:16:51.020Z,5.87
2023-04-02T03:19:24.374Z,5.88
2023-04-02T03:21:57.364Z,5.89
2023-04-02T03:24:32.745Z,5.88
2023-04-02T03:27:03.577Z,5.86
2023-04-02T03:29:37.093Z,5.83
2023-04-02T03:32:06.256Z,5.79
2023-04-02T03:34:37.049Z,5.73
2023-04-02T03:37:07.028Z,5.71
2023-04-02T03:40:02.091Z,5.67
2023-04-02T03:42:51.119Z,5.65
2023-04-02T03:45:20.852Z,5.65
2023-04-02T03:48:03.326Z,5.65
2023-04-02T03:50:43.436Z,5.64
2023-04-02T03:53:11.868Z,5.62
2023-04-02T03:55:41.233Z,5.58
2023-04-02T03:58:34.034Z,5.53
2023-04-02T04:01:07.357Z,5.48
2023-04-02T04:03:37.550Z,5.45
2023-04-02T04:06:07.044Z,5.44
2023-04-02T04:08:42.861Z,5.45
2023-04-02T04:11:14.078Z,5.46
2023-04-02T04:13:47.445Z,5.47
2023-04-02T04:16:30.460Z,5.49
2023-04-02T04:19:06.866Z,5.51
2023-04-02T04:21:38.607Z,5.53
2023-04-02T04:24:22.179Z,5.53
2023-04-02T04:26:54.305Z,5.55
2023-04-02T04:29:25.708Z,5.56
2023-04-02T04:31:55.983Z,5.58
2023-04-02T04:34:53.855Z,5.59
2023-04-02T04:37:33.816Z,5.62
2023-04-02T04:40:07.777Z,5.66
2023-04-02T04:42:36.941Z,5.68
2023-04-02T04:45:23.157Z,5.69
2023-04-02T04:47:54.358Z,5.70
2023-04-02T04:50:29.446Z,5.71
2023-04-02T04:52:58.565Z,5.72
2023-04-02T04:55:31.245Z,5.73
2023-04-02T04:58:05.016Z,5.75
2023-04-02T05:00:42.487Z,5.76
2023-04-02T05:03:23.723Z,5.78
2023-04-02T05:05:52.950Z,5.81
2023-04-02T05:08:22.554Z,5.84
2023-04-02T05:11:01.165Z,5.88
2023-04-02T05:13:33.840Z,5.92
2023-04-02T05:16:17.057Z,5.97
2023-04-02T05:19:06.980Z,6.03
2023-04-02T05:21:47.914Z,6.11
2023-04-02T05:24:35.092Z,6.20
2023-04-02T05:27:05.652Z,6.31
2023-04-02T05:29:35.831Z,6.43
2023-04-02T05:32:06.251Z,6.58
2023-04-02T05:34:37.330Z,6.73
2023-04-02T05:37:07.229Z,6.81
2023-04-02T05:39:37.152Z,6.84
2023-04-02T05:42:06.078Z,6.87
2023-04-02T05:44:45.755Z,6.90
2023-04-02T05:47:18.042Z,6.92
2023-04-02T05:49:51.862Z,6.96
2023-04-02T05:52:23.288Z,7.00
2023-04-02T05:54:54.990Z,7.05
2023-04-02T05:57:39.465Z,7.10
2023-04-02T06:00:09.054Z,7.13
2023-04-02T06:02:43.084Z,7.15
2023-04-02T06:05:13.645Z,7.17
2023-04-02T06:07:46.637Z,7.20
2023-04-02T06:10:24.158Z,7.23
2023-04-02T06:13:03.643Z,7.28
2023-04-02T06:15:36.695Z,7.32
2023-04-02T06:18:20.087Z,7.37
2023-04-02T06:20:49.898Z,7.44
2023-04-02T06:23:32.405Z,7.53
2023-04-02T06:26:04.257Z,7.70
2023-04-02T06:28:39.333Z,7.83
2023-04-02T06:31:11.401Z,7.98
2023-04-02T06:40:28.185Z,9.00
2023-04-02T06:42:59.950Z,9.51
2023-04-02T06:45:57.351Z,10.02
2023-04-02T06:48:33.868Z,10.31
2023-04-02T06:51:09.741Z,10.45
2023-04-02T06:53:40.528Z,10.51
2023-04-02T06:56:17.408Z,10.56
2023-04-02T06:58:46.457Z,10.58
2023-04-02T07:01:17.034Z,10.54
2023-04-02T07:03:46.672Z,10.47
2023-04-02T07:06:23.472Z,10.43
2023-04-02T07:08:55.377Z,10.41
2023-04-02T07:11:24.602Z,10.43
2023-04-02T07:13:55.249Z,10.48
2023-04-02T07:16:25.798Z,10.49
2023-04-02T07:18:55.855Z,10.50
2023-04-02T07:21:26.927Z,10.53
2023-04-02T07:23:55.808Z,10.54
2023-04-02T07:26:28.114Z,10.57
2023-04-02T07:28:56.405Z,10.60
2023-04-02T07:31:26.062Z,10.59
2023-04-02T07:33:54.815Z,10.56
2023-04-02T07:36:23.505Z,10.50
2023-04-02T07:38:52.137Z,10.52
2023-04-02T07:41:21.232Z,10.61
2023-04-02T07:43:49.689Z,10.78
2023-04-02T07:46:19.391Z,10.98
2023-04-02T07:48:47.892Z,11.19
2023-04-02T07:51:20.062Z,11.36
2023-04-02T07:53:55.009Z,11.41
2023-04-02T07:56:23.694Z,11.46
2023-04-02T07:58:52.403Z,11.57
2023-04-02T08:01:24.200Z,11.67
2023-04-02T08:03:54.765Z,11.73
2023-04-02T08:06:23.635Z,11.74
2023-04-02T08:08:52.110Z,11.70
2023-04-02T08:11:20.306Z,11.69
2023-04-02T08:13:54.318Z,11.71
2023-04-02T08:16:24.023Z,11.71
2023-04-02T08:18:52.338Z,11.73
2023-04-02T08:21:20.787Z,11.72
2023-04-02T08:23:49.089Z,11.68
2023-04-02T08:26:18.140Z,11.59
2023-04-02T08:28:46.542Z,11.54
2023-04-02T08:31:17.410Z,11.49
2023-04-02T08:33:46.195Z,11.45
2023-04-02T08:36:15.943Z,11.46
2023-04-02T08:38:44.518Z,11.49
2023-04-02T08:41:23.312Z,11.51
2023-04-02T08:44:00.866Z,11.47
2023-04-02T08:46:29.345Z,11.41
2023-04-02T08:48:58.360Z,11.36
2023-04-02T08:51:27.951Z,11.26
2023-04-02T08:54:15.060Z,11.12
2023-04-02T08:56:44.263Z,10.98
2023-04-02T08:59:15.619Z,10.93
2023-04-02T09:01:44.219Z,10.92
2023-04-02T09:04:14.626Z,10.95
2023-04-02T09:06:44.030Z,11.00
2023-04-02T09:09:12.748Z,11.08
2023-04-02T09:11:54.526Z,11.18
2023-04-02T09:14:41.712Z,11.25
2023-04-02T09:17:19.919Z,11.23
2023-04-02T09:20:06.555Z,11.11
2023-04-02T09:22:35.817Z,10.95
2023-04-02T09:25:05.187Z,10.83
2023-04-02T09:27:36.156Z,10.71
2023-04-02T09:30:24.392Z,10.63
2023-04-02T09:32:53.517Z,10.59
2023-04-02T09:35:26.470Z,10.54
2023-04-02T09:38:07.575Z,10.54
2023-04-02T09:41:01.140Z,10.55
2023-04-02T09:43:30.202Z,10.52
2023-04-02T09:46:13.887Z,10.50
2023-04-02T09:48:46.834Z,10.50
2023-04-02T09:51:20.431Z,10.50
2023-04-02T09:53:49.558Z,10.50
2023-04-02T09:56:19.109Z,10.51
2023-04-02T09:59:02.789Z,10.50
2023-04-02T10:01:32.544Z,10.43
2023-04-02T10:04:02.328Z,10.35
2023-04-02T10:06:30.782Z,10.27
2023-04-02T10:08:59.077Z,10.21
2023-04-02T10:11:36.498Z,10.17
2023-04-02T10:14:24.545Z,10.18
2023-04-02T10:17:13.808Z,10.23
2023-04-02T10:19:48.982Z,10.31
2023-04-02T10:22:17.861Z,10.36
2023-04-02T10:24:46.438Z,10.40
2023-04-02T10:27:17.304Z,10.43
2023-04-02T10:29:55.611Z,10.45
2023-04-02T10:32:23.763Z,10.49
2023-04-02T10:34:59.077Z,10.53
2023-04-02T10:37:36.524Z,10.57
2023-04-02T10:40:12.396Z,10.62
2023-04-02T10:42:46.445Z,10.66
2023-04-02T10:45:14.550Z,10.71
2023-04-02T10:47:45.901Z,10.76
2023-04-02T10:50:25.871Z,10.83
2023-04-02T10:53:09.630Z,10.91
2023-04-02T10:55:43.418Z,10.99
2023-04-02T10:58:20.019Z,11.06
2023-04-02T11:01:02.164Z,11.12
2023-04-02T11:03:38.228Z,11.16
2023-04-02T11:06:19.010Z,11.19
2023-04-02T11:08:49.146Z,11.23
2023-04-02T11:11:36.785Z,11.30
2023-04-02T11:14:05.013Z,11.37
2023-04-02T11:16:35.018Z,11.45
2023-04-02T11:19:17.328Z,11.53
2023-04-02T11:21:58.719Z,11.63
2023-04-02T11:24:37.058Z,11.70
2023-04-02T11:27:16.612Z,11.71
2023-04-02T11:29:49.875Z,11.73
2023-04-02T11:32:25.673Z,11.74
2023-04-02T11:35:05.687Z,11.76
2023-04-02T11:37:39.531Z,11.75
2023-04-02T11:40:11.047Z,11.72
2023-04-02T11:42:48.824Z,11.64
2023-04-02T11:45:29.235Z,11.54
2023-04-02T11:48:00.422Z,11.47
2023-04-02T11:50:29.361Z,11.44
2023-04-02T11:53:02.200Z,11.43
2023-04-02T11:55:32.260Z,11.44
2023-04-02T11:58:21.131Z,11.46
2023-04-02T12:01:08.201Z,11.46
2023-04-02T12:03:48.646Z,11.44
2023-04-02T12:06:35.411Z,11.42
2023-04-02T12:09:23.840Z,11.35
2023-04-02T12:11:52.813Z,11.15
2023-04-02T12:14:41.141Z,10.92
2023-04-02T12:17:28.075Z,10.67
2023-04-02T12:19:59.813Z,10.36
2023-04-02T12:22:29.136Z,10.07
2023-04-02T12:25:00.628Z,9.91
2023-04-02T12:27:29.716Z,9.87
2023-04-02T12:30:16.636Z,9.90
2023-04-02T12:32:57.675Z,9.96
2023-04-02T12:35:27.770Z,10.00
2023-04-02T12:37:57.403Z,10.01
2023-04-02T12:40:26.276Z,10.05
2023-04-02T12:42:56.942Z,10.10
2023-04-02T12:45:28.611Z,10.16
2023-04-02T12:47:58.191Z,10.21
2023-04-02T12:50:27.155Z,10.25
2023-04-02T12:52:59.112Z,10.25
2023-04-02T12:55:27.407Z,10.23
2023-04-02T12:57:58.600Z,10.23
2023-04-02T13:00:28.805Z,10.18
2023-04-02T13:03:01.997Z,10.11
2023-04-02T13:05:37.029Z,10.00
2023-04-02T13:08:06.271Z,9.87
2023-04-02T13:10:34.993Z,9.70
2023-04-02T13:13:03.759Z,9.45
2023-04-02T13:15:33.287Z,9.14
2023-04-02T13:18:17.054Z,8.79
2023-04-02T13:20:58.383Z,8.43
2023-04-02T13:23:29.477Z,8.11
2023-04-02T13:26:01.862Z,7.84
2023-04-02T13:28:30.355Z,7.62
2023-04-02T13:31:00.796Z,7.42
2023-04-02T13:33:30.777Z,7.27
2023-04-02T13:35:58.918Z,7.15
2023-04-02T13:38:28.619Z,7.08
2023-04-02T13:40:56.991Z,7.02
2023-04-02T13:43:25.164Z,6.98
2023-04-02T13:45:53.526Z,6.92
2023-04-02T13:48:28.806Z,6.86
2023-04-02T13:50:57.510Z,6.83
2023-04-02T13:53:28.398Z,6.80
2023-04-02T13:55:56.708Z,6.78
2023-04-02T13:58:25.353Z,6.73
2023-04-02T14:00:58.401Z,6.68
2023-04-02T14:03:27.484Z,6.63
2023-04-02T14:05:59.586Z,6.58
2023-04-02T14:08:34.144Z,6.52
2023-04-02T14:11:21.262Z,6.47
2023-04-02T14:13:52.411Z,6.43
2023-04-02T14:16:23.722Z,6.39
2023-04-02T14:19:11.146Z,6.35
2023-04-02T14:21:39.264Z,6.30
2023-04-02T14:24:10.214Z,6.27
2023-04-02T14:26:41.493Z,6.28
2023-04-02T14:29:28.803Z,6.29
2023-04-02T14:32:06.187Z,6.29
2023-04-02T14:34:35.061Z,6.30
2023-04-02T14:37:03.295Z,6.32
2023-04-02T14:39:38.841Z,6.35
2023-04-02T14:42:07.180Z,6.39
2023-04-02T14:44:37.376Z,6.41
2023-04-02T14:47:17.139Z,6.44
2023-04-02T14:49:46.252Z,6.46
2023-04-02T14:52:16.208Z,6.50
2023-04-02T14:55:09.561Z,6.53
2023-04-02T14:57:38.173Z,6.57
2023-04-02T15:00:22.889Z,6.61
2023-04-02T15:03:18.847Z,6.64
2023-04-02T15:05:52.401Z,6.68
2023-04-02T15:08:27.392Z,6.72
2023-04-02T15:11:02.976Z,6.75
2023-04-02T15:13:40.367Z,6.80
2023-04-02T15:16:13.768Z,6.86
2023-04-02T15:18:43.460Z,6.91
2023-04-02T15:21:17.348Z,6.94
2023-04-02T15:24:03.826Z,6.97
2023-04-02T15:26:38.365Z,6.96
2023-04-02T15:29:27.747Z,6.97
2023-04-02T15:32:01.247Z,7.00
2023-04-02T15:34:34.985Z,7.02
2023-04-02T15:37:29.461Z,7.05
2023-04-02T15:40:16.760Z,7.09
2023-04-02T15:43:04.320Z,7.13
2023-04-02T15:45:55.782Z,7.17
2023-04-02T15:48:31.270Z,7.20
2023-04-02T15:50:59.720Z,7.21
2023-04-02T15:53:50.157Z,7.19
2023-04-02T15:56:39.317Z,7.13
2023-04-02T15:59:07.657Z,7.05
2023-04-02T16:01:59.397Z,6.96
2023-04-02T16:04:37.883Z,6.86
2023-04-02T16:07:12.771Z,6.80
2023-04-02T16:09:48.007Z,6.77
2023-04-02T16:12:18.059Z,6.75
2023-04-02T16:14:46.970Z,6.75
2023-04-02T16:17:35.236Z,6.75
2023-04-02T16:20:06.777Z,6.77
2023-04-02T16:22:35.257Z,6.79
2023-04-02T16:25:06.838Z,6.82
2023-04-02T16:27:35.230Z,6.86
2023-04-02T16:30:03.676Z,6.89
2023-04-02T16:32:43.765Z,6.95
2023-04-02T16:35:41.964Z,6.99
2023-04-02T16:38:13.767Z,7.02
2023-04-02T16:40:42.431Z,7.05
2023-04-02T16:43:43.583Z,7.07
2023-04-02T16:46:28.339Z,7.09
2023-04-02T16:49:23.241Z,7.11
2023-04-02T16:51:54.453Z,7.13
2023-04-02T16:54:46.108Z,7.11
2023-04-02T16:57:18.893Z,7.08
2023-04-02T16:59:47.310Z,7.06
2023-04-02T17:02:34.006Z,7.07
2023-04-02T17:05:02.620Z,7.10
2023-04-02T17:07:31.363Z,7.15
2023-04-02T17:10:22.603Z,7.17
2023-04-02T17:13:02.838Z,7.20
2023-04-02T17:15:33.675Z,7.24
2023-04-02T17:18:24.819Z,7.28
2023-04-02T17:21:01.112Z,7.31
2023-04-02T17:23:29.575Z,7.33
2023-04-02T17:26:03.289Z,7.34
2023-04-02T17:28:37.068Z,7.35
2023-04-02T17:31:10.469Z,7.38
2023-04-02T17:33:39.148Z,7.42
2023-04-02T17:36:07.717Z,7.45
2023-04-02T17:38:50.631Z,7.48
2023-04-02T17:41:20.267Z,7.51
2023-04-02T17:43:52.743Z,7.52
2023-04-02T17:46:24.275Z,7.55
2023-04-02T17:48:56.140Z,7.61
2023-04-02T17:51:44.041Z,7.65
2023-04-02T17:54:16.969Z,7.66
2023-04-02T17:56:48.339Z,7.67
2023-04-02T17:59:29.760Z,7.65
2023-04-02T18:02:16.487Z,7.65
2023-04-02T18:05:03.327Z,7.66
2023-04-02T18:07:53.329Z,7.64
2023-04-02T18:10:22.080Z,7.60
2023-04-02T18:12:50.317Z,7.54
2023-04-02T18:15:23.519Z,7.49
2023-04-02T18:18:04.073Z,7.44
2023-04-02T18:20:59.082Z,7.38
2023-04-02T18:23:33.777Z,7.30
2023-04-02T18:26:02.182Z,7.27
2023-04-02T18:28:45.841Z,7.26
2023-04-02T18:31:34.427Z,7.23
2023-04-02T18:34:22.902Z,7.17
2023-04-02T18:36:57.944Z,7.13
2023-04-02T18:39:36.369Z,7.12
2023-04-02T18:42:13.931Z,7.11
2023-04-02T18:44:45.632Z,7.10
2023-04-02T18:47:19.933Z,7.11
2023-04-02T18:49:57.931Z,7.13
2023-04-02T18:52:26.434Z,7.14
2023-04-02T18:55:06.615Z,7.14
2023-04-02T18:57:36.378Z,7.14
2023-04-02T19:00:25.682Z,7.16
2023-04-02T19:02:59.502Z,7.14
2023-04-02T19:05:41.723Z,7.04
2023-04-02T19:08:11.202Z,6.92
2023-04-02T19:10:40.942Z,6.82
2023-04-02T19:13:14.209Z,6.77
2023-04-02T19:15:54.470Z,6.74
2023-04-02T19:18:31.759Z,6.71
2023-04-02T19:21:04.680Z,6.68
2023-04-02T19:23:37.724Z,6.65
2023-04-02T19:26:18.122Z,6.60
2023-04-02T19:28:49.456Z,6.55
2023-04-02T19:31:17.598Z,6.52
2023-04-02T19:34:09.485Z,6.49
2023-04-02T19:36:45.094Z,6.47
2023-04-02T19:39:22.766Z,6.44
2023-04-02T19:41:52.305Z,6.41
2023-04-02T19:44:20.457Z,6.39
2023-04-02T19:46:49.151Z,6.37
2023-04-02T19:49:20.168Z,6.34
2023-04-02T19:51:48.834Z,6.32
2023-04-02T19:54:17.140Z,6.31
2023-04-02T19:56:45.624Z,6.28
2023-04-02T19:59:18.741Z,6.26
2023-04-02T20:01:47.438Z,6.27
2023-04-02T20:04:15.951Z,6.27
2023-04-02T20:06:44.484Z,6.26
2023-04-02T20:09:12.796Z,6.25
2023-04-02T20:11:41.299Z,6.23
2023-04-02T20:14:13.300Z,6.22
2023-04-02T20:16:45.372Z,6.20
2023-04-02T20:19:14.385Z,6.18
2023-04-02T20:21:46.127Z,6.16
2023-04-02T20:24:14.651Z,6.14
2023-04-02T20:26:43.091Z,6.11
2023-04-02T20:29:14.324Z,6.10
2023-04-02T20:31:42.787Z,6.09
2023-04-02T20:34:11.219Z,6.08
2023-04-02T20:36:40.272Z,6.08
2023-04-02T20:39:09.422Z,6.07
2023-04-02T20:41:38.050Z,6.06
2023-04-02T20:44:09.962Z,6.06
2023-04-02T20:46:40.294Z,6.05
2023-04-02T20:49:08.564Z,6.04
2023-04-02T20:51:38.289Z,6.03
2023-04-02T20:54:06.639Z,6.02
2023-04-02T20:56:37.633Z,6.03
2023-04-02T20:59:06.187Z,6.03
2023-04-02T21:01:34.379Z,6.03
2023-04-02T21:04:03.296Z,6.03
2023-04-02T21:06:32.909Z,6.04
2023-04-02T21:09:02.227Z,6.04
2023-04-02T21:11:35.184Z,6.03
2023-04-02T21:14:04.394Z,6.03
2023-04-02T21:16:32.985Z,6.03
2023-04-02T21:19:03.382Z,6.02
2023-04-02T21:21:32.375Z,6.01
2023-04-02T21:24:04.557Z,5.99
2023-04-02T21:26:34.814Z,5.97
2023-04-02T21:29:03.532Z,5.96
2023-04-02T21:31:34.433Z,5.96
2023-04-02T21:34:03.012Z,5.96
2023-04-02T21:36:35.531Z,5.96
2023-04-02T21:39:05.692Z,5.96
2023-04-02T21:41:34.767Z,5.96
2023-04-02T21:44:03.508Z,5.96
2023-04-02T21:46:32.121Z,5.95
2023-04-02T21:49:00.516Z,5.95
2023-04-02T21:51:29.527Z,5.94
2023-04-02T21:53:58.037Z,5.92
2023-04-02T21:56:27.185Z,5.92
2023-04-02T21:58:55.593Z,5.91
2023-04-02T22:01:27.670Z,5.91
2023-04-02T22:03:57.020Z,5.90
2023-04-02T22:06:25.732Z,5.89
2023-04-02T22:08:55.051Z,5.90
2023-04-02T22:11:30.287Z,5.90
2023-04-02T22:13:58.937Z,5.89
2023-04-02T22:16:28.024Z,5.89
2023-04-02T22:18:56.551Z,5.89
2023-04-02T22:21:25.693Z,5.89
2023-04-02T22:23:57.780Z,5.89
2023-04-02T22:26:27.589Z,5.89
2023-04-02T22:28:56.007Z,5.90
2023-04-02T22:31:25.720Z,5.92
2023-04-02T22:33:54.756Z,5.94
2023-04-02T22:36:23.099Z,5.96
2023-04-02T22:38:52.010Z,6.00
2023-04-02T22:41:25.780Z,6.01
2023-04-02T22:43:54.717Z,6.04
2023-04-02T22:46:23.094Z,6.06
2023-04-02T22:48:51.267Z,6.07
2023-04-02T22:51:21.331Z,6.08
2023-04-02T22:53:49.905Z,6.07
2023-04-02T22:56:18.988Z,6.09
2023-04-02T22:58:47.368Z,6.10
2023-04-02T23:01:16.786Z,6.11
2023-04-02T23:03:45.246Z,6.12
2023-04-02T23:06:14.503Z,6.14
2023-04-02T23:08:43.032Z,6.14
2023-04-02T23:11:14.861Z,6.16
2023-04-02T23:13:44.560Z,6.17
2023-04-02T23:16:13.130Z,6.18
2023-04-02T23:18:47.457Z,6.19
2023-04-02T23:21:16.732Z,6.18
2023-04-02T23:23:45.020Z,6.19
2023-04-02T23:26:14.553Z,6.20
2023-04-02T23:28:42.753Z,6.21
2023-04-02T23:31:16.041Z,6.22
2023-04-02T23:33:44.683Z,6.23
2023-04-02T23:36:26.632Z,6.25
2023-04-02T23:38:55.893Z,6.26
2023-04-02T23:41:24.898Z,6.28
2023-04-02T23:43:53.150Z,6.31
2023-04-02T23:46:23.028Z,6.34
2023-04-02T23:48:51.918Z,6.37
2023-04-02T23:51:20.862Z,6.40
2023-04-02T23:53:49.764Z,6.43
2023-04-02T23:56:21.912Z,6.46
2023-04-02T23:58:50.533Z,6.48
